Time;durP1;ratioP1;P1;durP2;ratioP2;P2;SDS_P1;SDS_P2;PMS_P1;PMS_P2;Temp;Humidity;BMP_temperature;BMP_pressure;BME280_temperature;BME280_humidity;BME280_pressure;Samples;Min_cycle;Max_cycle;Signal;HPM_P1;HPM_P2
2021/11/25 00:00:54;;;;;;;;;;;;;;;4.22;62.55;101043.64;1811807;79;20455;-73
2021/11/25 00:03:22;;;;;;;;;;;;;;;4.24;62.58;101043.00;1811941;79;20529;-74
2021/11/25 00:05:52;;;;;;;;;;;;;;;4.24;62.47;101038.92;1811695;79;20165;-75
2021/11/25 00:08:20;;;;;;;;;;;;;;;4.20;62.51;101037.50;1811817;79;20213;-76
2021/11/25 00:10:48;;;;;;;;;;;;;;;4.19;62.75;101043.42;1811832;79;20750;-76
2021/11/25 00:13:19;;;;;;;;;;;;;;;4.23;62.77;101038.57;1811904;79;20489;-75
2021/11/25 00:15:48;;;;;;;;;;;;;;;4.25;62.73;101042.00;1811813;78;20212;-73
2021/11/25 00:18:18;;;;;;;;;;;;;;;4.26;62.67;101036.93;1811437;79;20176;-77
2021/11/25 00:20:47;;;;;;;;;;;;;;;4.26;62.71;101040.50;1811678;79;20145;-76
2021/11/25 00:23:16;;;;;;;;;;;;;;;4.28;62.78;101040.36;1811933;79;20487;-76
2021/11/25 00:25:44;;;;;;;;;;;;;;;4.28;62.64;101039.00;1811927;79;20245;-76
2021/11/25 00:28:12;;;;;;;;;;;;;;;4.27;62.73;101030.51;1811446;79;20334;-76
2021/11/25 00:30:41;;;;;;;;;;;;;;;4.29;62.77;101033.94;1811738;79;20285;-74
2021/11/25 00:33:09;;;;;;;;;;;;;;;4.30;62.84;101031.58;1812013;79;20499;-76
2021/11/25 00:35:38;;;;;;;;;;;;;;;4.29;62.73;101038.00;1789552;79;20573;-76
2021/11/25 00:38:07;;;;;;;;;;;;;;;4.26;62.72;101035.58;1812123;79;20173;-74
2021/11/25 00:40:36;;;;;;;;;;;;;;;4.25;62.75;101037.93;1811660;79;20192;-75
2021/11/25 00:43:05;;;;;;;;;;;;;;;4.22;62.71;101036.36;1811793;79;20208;-76
2021/11/25 00:45:33;;;;;;;;;;;;;;;4.23;62.91;101035.86;1811449;79;20192;-75
2021/11/25 00:48:03;;;;;;;;;;;;;;;4.18;62.89;101031.36;1811833;79;20153;-74
2021/11/25 00:50:33;;;;;;;;;;;;;;;4.19;62.93;101034.42;1811796;79;20541;-75
2021/11/25 00:53:01;;;;;;;;;;;;;;;4.15;62.92;101037.92;1811715;79;20611;-74
2021/11/25 00:55:29;;;;;;;;;;;;;;;4.13;63.13;101033.99;1811806;79;20463;-76
2021/11/25 00:57:58;;;;;;;;;;;;;;;4.13;63.24;101035.84;1811800;79;20471;-77
2021/11/25 01:00:27;;;;;;;;;;;;;;;4.10;63.23;101028.85;1811559;79;20145;-76
2021/11/25 01:02:56;;;;;;;;;;;;;;;4.09;63.44;101031.20;1811755;79;20471;-77
2021/11/25 01:05:25;;;;;;;;;;;;;;;4.08;63.51;101028.13;1811937;79;20169;-76
2021/11/25 01:07:54;;;;;;;;;;;;;;;4.06;63.45;101027.42;1812076;79;20505;-75
2021/11/25 01:10:24;;;;;;;;;;;;;;;4.03;63.57;101024.98;1811501;79;20211;-76
2021/11/25 01:12:53;;;;;;;;;;;;;;;4.01;63.74;101025.62;1811591;79;20525;-76
2021/11/25 01:15:29;;;;;;;;;;;;;;;4.00;63.78;101022.55;1814111;78;20145;-75
2021/11/25 01:17:54;;;;;;;;;;;;;;;3.96;63.81;101018.91;1820283;79;20500;-76
2021/11/25 01:20:22;;;;;;;;;;;;;;;3.94;64.06;101019.55;1804718;79;20452;-76
2021/11/25 01:22:50;;;;;;;;;;;;;;;3.94;64.08;101016.34;1801163;79;20170;-75
2021/11/25 01:25:18;;;;;;;;;;;;;;;3.93;64.15;101005.13;1801101;80;20185;-73
2021/11/25 01:27:47;;;;;;;;;;;;;;;3.96;64.28;101004.00;1801044;80;20460;-75
2021/11/25 01:30:16;;;;;;;;;;;;;;;3.97;64.30;101008.42;1801037;80;20178;-75
2021/11/25 01:32:46;;;;;;;;;;;;;;;3.96;64.30;101001.28;1801022;80;20245;-74
2021/11/25 01:35:14;;;;;;;;;;;;;;;3.97;64.51;101009.28;1800766;79;20464;-75
2021/11/25 01:37:43;;;;;;;;;;;;;;;4.00;64.41;101005.43;1801103;79;20447;-76
2021/11/25 01:40:13;;;;;;;;;;;;;;;3.96;64.34;101007.56;1800877;79;20162;-75
2021/11/25 01:42:43;;;;;;;;;;;;;;;3.95;64.46;101004.99;1801472;79;20150;-75
2021/11/25 01:45:11;;;;;;;;;;;;;;;3.93;64.48;101005.13;1801091;79;20161;-75
2021/11/25 01:47:43;;;;;;;;;;;;;;;3.88;64.46;100996.53;1800836;79;20177;-75
2021/11/25 01:50:13;;;;;;;;;;;;;;;3.87;64.62;100999.39;1801288;80;20145;-74
2021/11/25 01:52:41;;;;;;;;;;;;;;;3.87;64.69;101007.52;1800993;80;20217;-74
2021/11/25 01:55:10;;;;;;;;;;;;;;;3.89;64.74;100998.25;1801060;79;20553;-74
2021/11/25 01:57:40;;;;;;;;;;;;;;;3.93;64.87;101005.13;1801006;80;20209;-75
2021/11/25 02:00:17;;;;;;;;;;;;;;;3.96;64.81;101010.28;1801105;79;20145;-74
2021/11/25 02:02:46;;;;;;;;;;;;;;;3.95;64.76;101004.99;1787258;79;20464;-74
2021/11/25 02:05:14;;;;;;;;;;;;;;;3.94;64.79;101006.84;1801178;80;20714;-74
2021/11/25 02:07:43;;;;;;;;;;;;;;;3.95;64.90;101004.50;1801188;80;20595;-75
2021/11/25 02:10:11;;;;;;;;;;;;;;;3.96;64.97;101003.50;1801368;80;20162;-76
2021/11/25 02:12:40;;;;;;;;;;;;;;;3.98;65.01;100998.80;1801121;79;20241;-75
2021/11/25 02:15:09;;;;;;;;;;;;;;;3.98;64.93;101000.15;1798804;79;20217;-75
2021/11/25 02:17:37;;;;;;;;;;;;;;;3.99;65.01;101008.64;1766860;81;20271;-76
2021/11/25 02:20:07;;;;;;;;;;;;;;;4.01;64.98;101008.00;1767928;80;20235;-75
2021/11/25 02:22:36;;;;;;;;;;;;;;;4.01;64.99;101009.36;1767659;80;20148;-75
2021/11/25 02:25:06;;;;;;;;;;;;;;;4.02;65.00;101008.86;1767883;81;20263;-75
2021/11/25 02:27:35;;;;;;;;;;;;;;;4.05;65.12;101012.64;1768078;81;20203;-74
2021/11/25 02:30:05;;;;;;;;;;;;;;;4.07;65.06;101011.50;1767793;80;20179;-76
2021/11/25 02:32:35;;;;;;;;;;;;;;;4.08;65.11;101008.30;1767861;80;20152;-73
2021/11/25 02:35:05;;;;;;;;;;;;;;;4.09;65.07;101008.16;1767845;80;20160;-75
2021/11/25 02:37:34;;;;;;;;;;;;;;;4.09;65.05;101008.66;1767963;80;20216;-75
2021/11/25 02:40:17;;;;;;;;;;;;;;;4.07;65.02;101003.37;1767689;80;20156;-75
2021/11/25 02:42:45;;;;;;;;;;;;;;;4.07;64.99;101003.87;1767994;81;20183;-75
2021/11/25 02:45:15;;;;;;;;;;;;;;;4.11;64.96;101007.52;1747058;81;20160;-75
2021/11/25 02:47:43;;;;;;;;;;;;;;;4.13;65.00;101000.59;1767651;81;20159;-75
2021/11/25 02:50:11;;;;;;;;;;;;;;;4.14;65.01;100997.73;1768021;81;20458;-74
2021/11/25 02:52:41;;;;;;;;;;;;;;;4.15;65.00;100993.17;1767862;81;20584;-75
2021/11/25 02:55:09;;;;;;;;;;;;;;;4.16;65.09;100998.95;1768174;81;20204;-75
2021/11/25 02:57:38;;;;;;;;;;;;;;;4.16;65.01;100995.38;1767522;81;20207;-75
2021/11/25 03:00:15;;;;;;;;;;;;;;;4.16;65.13;100999.45;1768300;81;20215;-75
2021/11/25 03:02:45;;;;;;;;;;;;;;;4.16;65.17;100998.09;1767959;81;20192;-76
2021/11/25 03:05:14;;;;;;;;;;;;;;;4.18;65.27;100997.45;1767708;81;20191;-76
2021/11/25 03:07:42;;;;;;;;;;;;;;;4.18;65.20;100986.61;1767847;81;20436;-74
2021/11/25 03:10:10;;;;;;;;;;;;;;;4.18;65.27;100987.96;1768102;80;20458;-74
2021/11/25 03:12:40;;;;;;;;;;;;;;;4.17;65.26;100984.89;1768025;81;20164;-75
2021/11/25 03:15:09;;;;;;;;;;;;;;;4.16;65.31;100992.17;1767877;80;20179;-75
2021/11/25 03:17:38;;;;;;;;;;;;;;;4.14;65.39;100989.60;1770728;80;20156;-75
2021/11/25 03:20:07;;;;;;;;;;;;;;;4.16;65.34;100989.96;1770911;81;20199;-76
2021/11/25 03:22:37;;;;;;;;;;;;;;;4.15;65.41;100987.75;1765548;81;20459;-74
2021/11/25 03:25:07;;;;;;;;;;;;;;;4.16;65.44;100994.03;1763330;81;20156;-76
2021/11/25 03:27:36;;;;;;;;;;;;;;;4.11;65.53;100984.46;1763039;81;20462;-75
2021/11/25 03:30:05;;;;;;;;;;;;;;;4.09;65.62;100985.10;1762982;81;20250;-78
2021/11/25 03:32:34;;;;;;;;;;;;;;;4.06;65.68;100976.39;1763322;81;20152;-75
2021/11/25 03:35:02;;;;;;;;;;;;;;;4.06;65.73;100979.96;1763112;81;20220;-76
2021/11/25 03:37:30;;;;;;;;;;;;;;;4.08;65.95;100977.11;1763050;80;20148;-74
2021/11/25 03:39:58;;;;;;;;;;;;;;;4.07;65.96;100973.54;1763020;80;20152;-74
2021/11/25 03:42:28;;;;;;;;;;;;;;;4.05;65.95;100976.89;1763259;81;20152;-74
2021/11/25 03:44:56;;;;;;;;;;;;;;;4.05;66.02;100974.18;1762913;81;20251;-76
2021/11/25 03:47:26;;;;;;;;;;;;;;;4.05;66.09;100980.96;1763160;81;20176;-74
2021/11/25 03:49:54;;;;;;;;;;;;;;;4.06;66.08;100975.89;1763269;81;20232;-75
2021/11/25 03:52:22;;;;;;;;;;;;;;;4.09;66.11;100976.97;1763211;81;20477;-76
2021/11/25 03:54:55;;;;;;;;;;;;;;;4.13;66.10;100982.47;1763050;81;20199;-75
2021/11/25 03:57:23;;;;;;;;;;;;;;;4.18;66.13;100978.47;1763131;81;20172;-74
2021/11/25 03:59:52;;;;;;;;;;;;;;;4.19;66.08;100981.54;1763025;81;20167;-75
2021/11/25 04:02:21;;;;;;;;;;;;;;;4.20;66.07;100980.54;1763138;81;20600;-76
2021/11/25 04:04:49;;;;;;;;;;;;;;;4.20;66.02;100980.04;1763325;81;20192;-77
2021/11/25 04:07:18;;;;;;;;;;;;;;;4.21;65.99;100963.27;1763135;81;20322;-76
2021/11/25 04:09:47;;;;;;;;;;;;;;;4.19;65.94;100968.84;1763068;81;20240;-75
2021/11/25 04:12:15;;;;;;;;;;;;;;;4.17;66.04;100973.55;1763266;81;20235;-76
2021/11/25 04:14:45;;;;;;;;;;;;;;;4.17;66.08;100969.98;1763237;80;20152;-75
2021/11/25 04:17:18;;;;;;;;;;;;;;;4.16;66.23;100974.55;1772173;81;20155;-75
2021/11/25 04:19:45;;;;;;;;;;;;;;;4.16;66.22;100980.47;1776932;81;20239;-76
2021/11/25 04:22:13;;;;;;;;;;;;;;;4.15;66.20;100975.55;1813256;79;20153;-75
2021/11/25 04:24:42;;;;;;;;;;;;;;;4.14;66.24;100986.89;1822690;79;20251;-75
2021/11/25 04:27:11;;;;;;;;;;;;;;;4.12;66.22;100982.11;1822699;79;20188;-73
2021/11/25 04:29:42;;;;;;;;;;;;;;;4.10;66.31;100973.26;1823003;79;20188;-75
2021/11/25 04:37:44;;;;;;;;;;;;;;;4.09;66.43;100974.26;1822822;79;20181;-76
2021/11/25 04:40:15;;;;;;;;;;;;;;;4.08;66.42;100974.40;1823002;79;20144;-75
2021/11/25 04:42:44;;;;;;;;;;;;;;;4.07;66.58;100966.77;1823159;79;20140;-74
2021/11/25 04:45:12;;;;;;;;;;;;;;;4.08;66.56;100963.55;1823235;79;20152;-74
2021/11/25 04:47:41;;;;;;;;;;;;;;;4.09;66.73;100963.41;1822926;79;20184;-74
2021/11/25 04:50:10;;;;;;;;;;;;;;;4.11;66.77;100969.55;1822785;79;20188;-73
2021/11/25 04:52:40;;;;;;;;;;;;;;;4.14;66.65;100969.27;1822586;79;20442;-74
2021/11/25 04:55:08;;;;;;;;;;;;;;;4.13;66.64;100966.20;1823364;79;20227;-74
2021/11/25 04:57:37;;;;;;;;;;;;;;;4.12;66.59;100968.55;1823005;79;20536;-75
2021/11/25 05:00:07;;;;;;;;;;;;;;;4.07;66.59;100956.41;1823399;79;20188;-76
2021/11/25 05:02:35;;;;;;;;;;;;;;;4.05;66.72;100958.41;1823076;79;20140;-76
2021/11/25 05:05:06;;;;;;;;;;;;;;;4.05;66.75;100948.42;1823275;79;20383;-77
2021/11/25 05:07:35;;;;;;;;;;;;;;;4.07;66.86;100953.70;1823019;79;20169;-77
2021/11/25 05:10:04;;;;;;;;;;;;;;;4.09;66.85;100954.42;1823012;79;20252;-76
2021/11/25 05:12:33;;;;;;;;;;;;;;;4.11;66.87;100953.77;1822872;79;20180;-76
2021/11/25 05:15:04;;;;;;;;;;;;;;;4.13;66.86;100955.84;1822724;79;20240;-76
2021/11/25 05:17:33;;;;;;;;;;;;;;;4.14;66.94;100952.99;1815296;79;20205;-76
2021/11/25 05:20:02;;;;;;;;;;;;;;;4.15;66.91;100947.06;1801269;79;20209;-76
2021/11/25 05:22:31;;;;;;;;;;;;;;;4.16;66.94;100947.42;1800805;80;20189;-76
2021/11/25 05:24:59;;;;;;;;;;;;;;;4.17;66.98;100948.28;1801048;79;20188;-75
2021/11/25 05:27:28;;;;;;;;;;;;;;;4.16;66.97;100946.56;1801340;80;20182;-75
2021/11/25 05:29:56;;;;;;;;;;;;;;;4.18;66.96;100956.77;1801254;80;20308;-77
2021/11/25 05:32:24;;;;;;;;;;;;;;;4.21;66.99;100954.63;1800887;80;20460;-75
2021/11/25 05:34:54;;;;;;;;;;;;;;;4.22;66.98;100952.77;1801021;79;20224;-75
2021/11/25 05:37:22;;;;;;;;;;;;;;;4.23;66.99;100957.20;1801027;80;20177;-75
2021/11/25 05:39:51;;;;;;;;;;;;;;;4.23;67.00;100952.63;1800953;79;20193;-76
2021/11/25 05:42:19;;;;;;;;;;;;;;;4.25;67.04;100959.27;1800954;80;20185;-76
2021/11/25 05:44:47;;;;;;;;;;;;;;;4.25;67.06;100960.62;1800845;80;20700;-76
2021/11/25 05:47:17;;;;;;;;;;;;;;;4.25;67.03;100960.62;1801308;79;20582;-77
2021/11/25 05:49:45;;;;;;;;;;;;;;;4.25;67.10;100954.70;1800938;80;20205;-76
2021/11/25 05:52:14;;;;;;;;;;;;;;;4.25;67.15;100950.63;1801124;79;20188;-77
2021/11/25 05:54:42;;;;;;;;;;;;;;;4.27;67.15;100950.48;1801163;79;20150;-75
2021/11/25 05:57:10;;;;;;;;;;;;;;;4.30;67.20;100949.70;1800971;80;20157;-75
2021/11/25 05:59:38;;;;;;;;;;;;;;;4.32;67.12;100950.41;1801068;80;20142;-75
2021/11/25 06:02:08;;;;;;;;;;;;;;;4.32;67.02;100957.69;1801180;80;20185;-77
2021/11/25 06:04:38;;;;;;;;;;;;;;;4.33;67.07;100963.48;1800974;79;20213;-76
2021/11/25 06:07:06;;;;;;;;;;;;;;;4.34;67.04;100955.69;1801036;80;20177;-77
2021/11/25 06:09:37;;;;;;;;;;;;;;;4.36;67.13;100960.47;1801107;80;20192;-76
2021/11/25 06:12:06;;;;;;;;;;;;;;;4.37;67.02;100956.27;1800919;79;20162;-75
2021/11/25 06:14:36;;;;;;;;;;;;;;;4.37;66.98;100956.27;1800999;80;20289;-75
2021/11/25 06:17:06;;;;;;;;;;;;;;;4.39;66.96;100962.41;1806496;79;20513;-75
2021/11/25 06:19:35;;;;;;;;;;;;;;;4.43;66.87;100960.25;1822954;79;20240;-75
2021/11/25 06:22:04;;;;;;;;;;;;;;;4.44;66.69;100963.33;1823052;79;20632;-75
2021/11/25 06:24:33;;;;;;;;;;;;;;;4.44;66.66;100964.68;1822786;79;20459;-75
2021/11/25 06:27:01;;;;;;;;;;;;;;;4.43;66.71;100957.54;1822987;79;20519;-76
2021/11/25 06:29:31;;;;;;;;;;;;;;;4.41;66.66;100953.62;1822823;79;20297;-77
2021/11/25 06:31:59;;;;;;;;;;;;;;;4.41;66.62;100949.55;1823127;79;20180;-76
2021/11/25 06:34:27;;;;;;;;;;;;;;;4.42;66.59;100955.83;1823021;79;20451;-77
2021/11/25 06:36:56;;;;;;;;;;;;;;;4.43;66.62;100955.69;1822793;79;20208;-78
2021/11/25 06:39:24;;;;;;;;;;;;;;;4.47;66.59;100956.25;1822765;79;20210;-77
2021/11/25 06:41:52;;;;;;;;;;;;;;;4.48;66.36;100955.25;1822640;79;20172;-75
2021/11/25 06:44:21;;;;;;;;;;;;;;;4.46;66.37;100959.97;1823223;79;20447;-73
2021/11/25 06:46:51;;;;;;;;;;;;;;;4.46;66.43;100962.68;1822727;79;20195;-75
2021/11/25 06:49:20;;;;;;;;;;;;;;;4.48;66.40;100961.17;1822968;79;20517;-76
2021/11/25 06:51:48;;;;;;;;;;;;;;;4.49;66.34;100952.89;1823005;79;20442;-77
2021/11/25 06:54:16;;;;;;;;;;;;;;;4.48;66.40;100963.89;1822709;79;20188;-76
2021/11/25 06:56:44;;;;;;;;;;;;;;;4.48;66.45;100959.32;1822540;79;20148;-75
2021/11/25 06:59:13;;;;;;;;;;;;;;;4.51;66.43;100954.96;1823063;78;20521;-76
2021/11/25 07:01:42;;;;;;;;;;;;;;;4.54;66.40;100958.74;1822882;79;20156;-75
2021/11/25 07:04:13;;;;;;;;;;;;;;;4.57;66.34;100963.05;1822829;79;20172;-76
2021/11/25 07:06:44;;;;;;;;;;;;;;;4.58;66.34;100960.70;1822852;79;20683;-75
2021/11/25 07:09:11;;;;;;;;;;;;;;;4.60;66.34;100963.62;1822776;79;20236;-77
2021/11/25 07:11:43;;;;;;;;;;;;;;;4.61;66.28;100968.55;1822562;79;20133;-76
2021/11/25 07:14:13;;;;;;;;;;;;;;;4.61;66.15;100960.41;1822798;79;20225;-77
2021/11/25 07:16:42;;;;;;;;;;;;;;;4.62;66.16;100964.83;1821461;79;20180;-77
2021/11/25 07:19:11;;;;;;;;;;;;;;;4.63;65.86;100966.05;1804114;79;20198;-77
2021/11/25 07:21:39;;;;;;;;;;;;;;;4.65;65.71;100969.97;1804066;79;20208;-77
2021/11/25 07:24:10;;;;;;;;;;;;;;;4.67;65.80;100969.32;1805771;79;20209;-78
2021/11/25 07:26:39;;;;;;;;;;;;;;;4.69;65.88;100964.09;1807102;79;20208;-75
2021/11/25 07:29:09;;;;;;;;;;;;;;;4.70;65.62;100964.95;1806601;79;20153;-77
2021/11/25 07:31:37;;;;;;;;;;;;;;;4.68;65.52;100962.89;1806786;79;20762;-75
2021/11/25 07:34:06;;;;;;;;;;;;;;;4.69;65.66;100959.17;1806983;79;20252;-77
2021/11/25 07:36:35;;;;;;;;;;;;;;;4.70;65.58;100963.59;1806808;79;20547;-76
2021/11/25 07:39:03;;;;;;;;;;;;;;;4.72;65.51;100965.17;1806535;79;20213;-76
2021/11/25 07:41:33;;;;;;;;;;;;;;;4.73;65.55;100962.80;1806918;79;20153;-75
2021/11/25 07:44:01;;;;;;;;;;;;;;;4.75;65.38;100961.30;1807084;79;20560;-76
2021/11/25 07:46:31;;;;;;;;;;;;;;;4.76;65.44;100965.73;1806419;79;20169;-76
2021/11/25 07:49:01;;;;;;;;;;;;;;;4.77;65.45;100965.58;1807153;79;20252;-77
2021/11/25 07:51:30;;;;;;;;;;;;;;;4.78;65.38;100956.44;1806796;79;20192;-75
2021/11/25 07:54:00;;;;;;;;;;;;;;;4.81;65.52;100949.00;1806766;79;20177;-77
2021/11/25 07:56:28;;;;;;;;;;;;;;;4.84;65.38;100952.78;1806696;79;20877;-76
2021/11/25 07:58:57;;;;;;;;;;;;;;;4.88;65.08;100955.55;1806560;79;20181;-75
2021/11/25 08:01:26;;;;;;;;;;;;;;;4.88;65.02;100959.13;1806850;79;20460;-77
2021/11/25 08:03:55;;;;;;;;;;;;;;;4.89;65.05;100955.41;1806715;79;20522;-78
2021/11/25 08:06:23;;;;;;;;;;;;;;;4.90;64.98;100954.91;1806699;79;20564;-77
2021/11/25 08:08:52;;;;;;;;;;;;;;;4.91;64.97;100955.26;1806788;79;20256;-78
2021/11/25 08:11:21;;;;;;;;;;;;;;;4.90;65.04;100958.48;1806502;79;20177;-76
2021/11/25 08:13:51;;;;;;;;;;;;;;;4.92;65.00;100952.89;1806678;79;20235;-77
2021/11/25 08:16:20;;;;;;;;;;;;;;;4.95;64.89;100955.31;1807061;79;20205;-75
2021/11/25 08:18:50;;;;;;;;;;;;;;;4.94;64.76;100954.46;1806166;79;20201;-78
2021/11/25 08:21:21;;;;;;;;;;;;;;;4.93;64.77;100953.25;1806303;79;20184;-76
2021/11/25 08:23:50;;;;;;;;;;;;;;;4.92;64.71;100956.97;1806421;79;20193;-76
2021/11/25 08:26:18;;;;;;;;;;;;;;;4.90;64.75;100952.19;1810188;79;20216;-76
2021/11/25 08:28:47;;;;;;;;;;;;;;;4.90;64.75;100948.97;1811989;79;20467;-75
2021/11/25 08:31:16;;;;;;;;;;;;;;;4.92;64.84;100955.61;1812066;79;20503;-77
2021/11/25 08:33:46;;;;;;;;;;;;;;;4.91;64.63;100947.11;1811275;79;20189;-76
2021/11/25 08:36:15;;;;;;;;;;;;;;;4.89;64.72;100943.19;1811695;79;20149;-75
2021/11/25 08:38:44;;;;;;;;;;;;;;;4.91;64.88;100945.25;1811632;79;20255;-75
2021/11/25 08:41:12;;;;;;;;;;;;;;;4.93;64.84;100941.03;1812007;79;20242;-76
2021/11/25 08:43:41;;;;;;;;;;;;;;;4.96;64.77;100940.23;1811791;79;20467;-76
2021/11/25 08:46:10;;;;;;;;;;;;;;;4.99;64.77;100936.36;1811985;79;20185;-76
2021/11/25 08:48:39;;;;;;;;;;;;;;;5.00;64.62;100942.15;1811749;79;20153;-75
2021/11/25 08:51:08;;;;;;;;;;;;;;;5.03;64.57;100937.78;1814339;78;20157;-74
2021/11/25 08:59:22;;;;;;;;;;;;;;;5.03;64.26;100925.55;1784141;78;20592;-65
2021/11/25 09:02:03;;;;;;;;;;;;;;;5.06;64.17;100922.55;1804353;78;20200;-65
2021/11/25 09:04:38;;;;;;;;;;;;;;;5.06;64.07;100915.25;1785993;80;20183;-64
2021/11/25 09:07:06;;;;;;;;;;;;;;;5.06;64.15;100926.61;1787418;80;20216;-63
2021/11/25 09:09:35;;;;;;;;;;;;;;;5.06;64.07;100913.03;1774771;81;20164;-65
2021/11/25 09:12:05;;;;;;;;;;;;;;;5.07;64.08;100912.03;1778274;81;20173;-64
2021/11/25 09:14:37;;;;;;;;;;;;;;;5.07;64.18;100905.23;1778141;81;20220;-63
2021/11/25 09:17:07;;;;;;;;;;;;;;;5.11;64.20;100902.58;1766522;81;20470;-65
2021/11/25 09:22:27;;;;;;;;;;;;;;;5.14;63.80;100885.13;1807639;79;20249;-65
2021/11/25 09:24:55;;;;;;;;;;;;;;;5.18;63.85;100890.10;1806507;79;20201;-64
2021/11/25 09:27:23;;;;;;;;;;;;;;;5.23;63.49;100891.89;1804506;79;20229;-62
2021/11/25 09:29:51;;;;;;;;;;;;;;;5.26;63.76;100882.08;1804661;79;20153;-65
2021/11/25 09:32:21;;;;;;;;;;;;;;;5.29;63.51;100885.00;1786152;79;20141;-63
2021/11/25 09:35:08;;;;;;;;;;;;;;;5.31;63.54;100877.05;1770777;81;20270;-64
2021/11/25 09:37:36;;;;;;;;;;;;;;;5.36;63.35;100880.16;1770856;80;20149;-64
2021/11/25 09:42:48;;;;;;;;;;;;;;;5.39;63.07;100877.14;1770198;81;20220;-65
2021/11/25 09:45:19;;;;;;;;;;;;;;;5.39;62.57;100884.44;1770259;81;20229;-64
2021/11/25 09:47:48;;;;;;;;;;;;;;;5.37;62.59;100875.08;1770384;81;20181;-64
2021/11/25 09:50:18;;;;;;;;;;;;;;;5.39;62.77;100884.44;1749791;81;20464;-62
2021/11/25 09:52:51;;;;;;;;;;;;;;;5.40;62.67;100874.77;1770561;81;20205;-64
2021/11/25 09:55:20;;;;;;;;;;;;;;;5.40;62.35;100869.34;1770707;81;20535;-64
2021/11/25 09:57:51;;;;;;;;;;;;;;;5.40;62.33;100871.20;1770208;81;20190;-63
2021/11/25 10:00:21;;;;;;;;;;;;;;;5.42;62.39;100865.11;1772681;81;20195;-63
2021/11/25 10:03:03;;;;;;;;;;;;;;;5.46;62.57;100868.38;1792273;78;20503;-65
2021/11/25 10:05:54;;;;;;;;;;;;;;;5.47;62.54;100874.16;1827563;78;20287;-65
2021/11/25 10:08:33;;;;;;;;;;;;;;;5.52;62.39;100863.69;1811489;79;20496;-64
2021/11/25 10:11:17;;;;;;;;;;;;;;;5.53;62.40;100858.09;1787552;79;20171;-64
2021/11/25 10:13:56;;;;;;;;;;;;;;;5.56;62.34;100847.42;1782174;80;20434;-63
2021/11/25 10:16:40;;;;;;;;;;;;;;;5.58;62.15;100846.77;1781966;80;20211;-64
2021/11/25 10:19:13;;;;;;;;;;;;;;;5.57;61.86;100841.83;1770148;80;20172;-63
2021/11/25 10:21:53;;;;;;;;;;;;;;;5.56;61.67;100837.41;1793094;79;20232;-66
2021/11/25 10:27:18;;;;;;;;;;;;;;;5.56;61.27;100835.19;1806392;79;20157;-61
2021/11/25 10:30:03;;;;;;;;;;;;;;;5.55;61.36;100828.90;1806075;79;20149;-65
2021/11/25 10:32:38;;;;;;;;;;;;;;;5.56;61.43;100824.31;1816617;78;20151;-64
2021/11/25 10:35:32;;;;;;;;;;;;;;;5.56;61.55;100822.45;1844973;78;20183;-64
2021/11/25 10:40:35;;;;;;;;;;;;;;;5.54;61.25;100814.11;1834259;78;20590;-62
2021/11/25 10:46:15;;;;;;;;;;;;;;;5.62;61.52;100816.90;1833711;78;20466;-62
2021/11/25 10:48:44;;;;;;;;;;;;;;;5.60;61.44;100802.11;1833401;78;20199;-64
2021/11/25 10:54:19;;;;;;;;;;;;;;;5.62;61.39;100800.59;1833336;78;20191;-63
2021/11/25 10:56:50;;;;;;;;;;;;;;;5.64;61.46;100795.85;1833273;78;20222;-61
2021/11/25 10:59:20;;;;;;;;;;;;;;;5.61;61.81;100791.58;1833523;78;20151;-65
2021/11/25 11:01:50;;;;;;;;;;;;;;;5.60;61.80;100791.23;1833823;78;20458;-65
2021/11/25 11:04:22;;;;;;;;;;;;;;;5.60;61.50;100791.73;1833105;78;20163;-64
2021/11/25 11:06:50;;;;;;;;;;;;;;;5.59;61.43;100792.75;1824590;78;20216;-64
2021/11/25 11:09:39;;;;;;;;;;;;;;;5.59;61.49;100777.80;1802450;79;20558;-63
2021/11/25 11:12:19;;;;;;;;;;;;;;;5.58;61.48;100768.79;1800280;80;20269;-63
2021/11/25 11:14:56;;;;;;;;;;;;;;;5.58;61.33;100767.94;1777081;79;20187;-63
2021/11/25 11:17:47;;;;;;;;;;;;;;;5.64;63.56;100764.59;1806334;79;20145;-63
2021/11/25 11:20:12;;;;;;;;;;;;;;;5.70;61.82;100753.09;1820697;79;20482;-65
2021/11/25 11:22:43;;;;;;;;;;;;;;;5.68;61.26;100752.39;1822742;79;20137;-64
2021/11/25 11:25:12;;;;;;;;;;;;;;;5.65;61.08;100749.48;1822139;79;20252;-64
2021/11/25 11:27:41;;;;;;;;;;;;;;;5.62;60.98;100748.94;1822714;78;20628;-65
2021/11/25 11:30:10;;;;;;;;;;;;;;;5.60;60.53;100745.53;1822626;79;20485;-64
2021/11/25 11:32:38;;;;;;;;;;;;;;;5.58;60.60;100743.47;1822621;79;20192;-64
2021/11/25 11:35:09;;;;;;;;;;;;;;;5.60;60.58;100750.97;1822900;79;20148;-65
2021/11/25 11:37:39;;;;;;;;;;;;;;;5.58;60.14;100746.19;1670496;85;20226;-64
2021/11/25 11:40:09;;;;;;;;;;;;;;;5.57;60.31;100726.81;1694416;85;20258;-63
2021/11/25 11:42:40;;;;;;;;;;;;;;;5.57;60.43;100729.53;1692326;85;20587;-65
2021/11/25 11:45:10;;;;;;;;;;;;;;;5.56;60.13;100721.89;1614571;88;20183;-65
2021/11/25 11:47:40;;;;;;;;;;;;;;;5.59;59.98;100724.29;1635897;88;20997;-63
2021/11/25 11:50:10;;;;;;;;;;;;;;;5.57;59.96;100720.88;1635616;88;20222;-66
2021/11/25 11:53:00;;;;;;;;;;;;;;;5.58;59.86;100720.37;1635852;88;20329;-66
2021/11/25 11:55:38;;;;;;;;;;;;;;;5.57;59.87;100715.95;1666784;83;20486;-65
2021/11/25 11:58:25;;;;;;;;;;;;;;;5.55;58.44;100710.67;1719352;83;20555;-65
2021/11/25 12:01:06;;;;;;;;;;;;;;;5.54;56.71;100705.39;1719108;83;20255;-64
2021/11/25 12:03:39;;;;;;;;;;;;;;;5.49;55.39;100703.14;1784236;79;20552;-65
2021/11/25 12:06:32;;;;;;;;;;;;;;;5.46;55.91;100705.32;1822783;79;20212;-65
2021/11/25 12:09:07;;;;;;;;;;;;;;;5.45;55.75;100693.59;1823014;78;20180;-65
2021/11/25 12:11:40;;;;;;;;;;;;;;;5.46;55.88;100698.53;1818551;79;20188;-64
2021/11/25 12:14:21;;;;;;;;;;;;;;;5.41;55.69;100695.78;1822573;79;20216;-65
2021/11/25 12:16:55;;;;;;;;;;;;;;;5.40;55.95;100704.94;1819835;79;20252;-63
2021/11/25 12:19:29;;;;;;;;;;;;;;;5.36;55.79;100707.63;1811845;79;20209;-65
2021/11/25 12:22:16;;;;;;;;;;;;;;;5.35;54.72;100709.14;1804077;79;20145;-65
2021/11/25 12:24:48;;;;;;;;;;;;;;;5.33;54.85;100701.14;1806190;79;20197;-65
2021/11/25 12:27:24;;;;;;;;;;;;;;;5.33;54.27;100697.07;1806334;79;20196;-65
2021/11/25 12:29:57;;;;;;;;;;;;;;;5.32;54.23;100689.93;1806627;79;20218;-66
2021/11/25 12:32:46;;;;;;;;;;;;;;;5.32;54.13;100691.29;1685504;85;20190;-64
2021/11/25 12:35:18;;;;;;;;;;;;;;;5.32;53.87;100691.29;1685343;85;20265;-64
2021/11/25 12:37:52;;;;;;;;;;;;;;;5.30;54.28;100684.30;1685444;85;20163;-62
2021/11/25 12:40:26;;;;;;;;;;;;;;;5.30;54.20;100697.89;1682089;85;20536;-64
2021/11/25 12:43:14;;;;;;;;;;;;;;;5.29;55.04;100691.59;1685445;85;20248;-64
2021/11/25 12:46:42;;;;;;;;;;;;;;;5.29;54.63;100698.39;1685736;84;20695;-65
2021/11/25 12:49:20;;;;;;;;;;;;;;;5.27;54.10;100697.70;1626100;86;20567;-65
2021/11/25 12:52:14;;;;;;;;;;;;;;;5.21;53.75;100692.89;1684468;85;20190;-65
2021/11/25 12:55:08;;;;;;;;;;;;;;;5.16;54.08;100693.83;1684742;85;20213;-63
2021/11/25 12:57:51;;;;;;;;;;;;;;;5.15;54.33;100681.25;1685203;85;20246;-65
2021/11/25 13:00:20;;;;;;;;;;;;;;;5.13;54.29;100680.56;1685608;85;20143;-64
2021/11/25 13:03:07;;;;;;;;;;;;;;;5.08;54.13;100674.73;1685628;85;20162;-64
2021/11/25 13:08:23;;;;;;;;;;;;;;;5.02;54.88;100678.08;1685299;84;20265;-64
2021/11/25 13:10:51;;;;;;;;;;;;;;;5.03;54.86;100674.35;1688978;84;20593;-64
2021/11/25 13:13:22;;;;;;;;;;;;;;;5.02;54.79;100672.65;1698926;84;20295;-64
2021/11/25 13:16:07;;;;;;;;;;;;;;;5.01;54.95;100669.58;1685221;85;20552;-63
2021/11/25 13:19:02;;;;;;;;;;;;;;;4.98;55.01;100668.53;1685186;85;20158;-64
2021/11/25 13:21:31;;;;;;;;;;;;;;;4.95;54.95;100662.91;1689879;85;20150;-62
2021/11/25 13:24:16;;;;;;;;;;;;;;;4.93;55.16;100666.28;1690189;85;20189;-66
2021/11/25 13:27:02;;;;;;;;;;;;;;;4.95;55.28;100676.98;1689966;85;20530;-64
2021/11/25 13:29:45;;;;;;;;;;;;;;;4.95;54.89;100670.20;1688870;84;20520;-66
2021/11/25 13:32:19;;;;;;;;;;;;;;;4.92;55.42;100661.01;1690321;85;20489;-65
2021/11/25 13:34:51;;;;;;;;;;;;;;;4.91;54.91;100655.23;1690222;84;20225;-65
2021/11/25 13:37:22;;;;;;;;;;;;;;;4.90;55.17;100649.45;1689611;84;20218;-67
2021/11/25 13:39:58;;;;;;;;;;;;;;;4.90;55.04;100649.45;1757574;79;20244;-65